Time;durP1;ratioP1;P1;durP2;ratioP2;P2;SDS_P1;SDS_P2;PMS_P1;PMS_P2;Temp;Humidity;BMP_temperature;BMP_pressure;BME280_temperature;BME280_humidity;BME280_pressure;Samples;Min_cycle;Max_cycle;Signal;HPM_P1;HPM_P2
2022/12/17 13:06:53;;;;;;;65.13;34.70;;;;;;;;;;5095449;28;20048;-69
2022/12/17 13:09:20;;;;;;;63.45;34.67;;;;;;;;;;5083991;28;20055;-70
2022/12/17 13:11:49;;;;;;;66.75;35.15;;;;;;;;;;5104252;28;20064;-70
2022/12/17 13:14:17;;;;;;;64.13;34.30;;;;;;;;;;5086104;28;20051;-70
2022/12/17 13:16:44;;;;;;;58.10;32.50;;;;;;;;;;5104246;28;20119;-80
2022/12/17 13:19:19;;;;;;;63.67;34.22;;;;;;;;;;5085132;28;20048;-71
2022/12/17 13:21:46;;;;;;;61.42;34.25;;;;;;;;;;5104732;28;20039;-71
2022/12/17 13:24:12;;;;;;;60.55;33.60;;;;;;;;;;5106113;28;20120;-70
2022/12/17 13:26:39;;;;;;;58.83;33.10;;;;;;;;;;5083862;28;20043;-70
2022/12/17 13:29:24;;;;;;;62.22;34.30;;;;;;;;;;5086456;28;20043;-70
2022/12/17 13:31:54;;;;;;;62.47;33.13;;;;;;;;;;5104160;28;20087;-70
2022/12/17 13:34:28;;;;;;;61.53;33.13;;;;;;;;;;5102654;28;20127;-70
2022/12/17 13:37:01;;;;;;;62.33;34.42;;;;;;;;;;5084386;28;20039;-70
2022/12/17 13:39:51;;;;;;;69.10;36.78;;;;;;;;;;5085760;28;20044;-70
2022/12/17 13:42:18;;;;;;;68.57;34.80;;;;;;;;;;5080446;28;20066;-70
2022/12/17 13:44:45;;;;;;;64.75;34.90;;;;;;;;;;5083686;28;20484;-70
2022/12/17 13:47:25;;;;;;;69.80;36.92;;;;;;;;;;5064651;28;20098;-70
2022/12/17 13:49:52;;;;;;;64.07;35.85;;;;;;;;;;5065127;28;20050;-70
2022/12/17 13:52:20;;;;;;;69.50;36.40;;;;;;;;;;5082683;28;20094;-70
2022/12/17 13:54:46;;;;;;;75.18;38.33;;;;;;;;;;5065049;28;20071;-70
2022/12/17 13:57:14;;;;;;;74.15;36.92;;;;;;;;;;5084189;28;20046;-70
2022/12/17 13:59:41;;;;;;;69.80;36.95;;;;;;;;;;5083833;28;20082;-70
2022/12/17 14:02:22;;;;;;;74.05;37.63;;;;;;;;;;5080896;28;20040;-70
2022/12/17 14:04:51;;;;;;;68.15;35.88;;;;;;;;;;5082433;28;20348;-70
2022/12/17 14:07:17;;;;;;;72.82;35.83;;;;;;;;;;5063308;28;20040;-70
2022/12/17 14:09:43;;;;;;;76.63;38.08;;;;;;;;;;5064023;28;20101;-70
2022/12/17 14:12:21;;;;;;;73.85;39.10;;;;;;;;;;5066065;28;20048;-70
2022/12/17 14:14:54;;;;;;;73.72;37.25;;;;;;;;;;5081997;28;20197;-70
2022/12/17 14:17:22;;;;;;;75.40;37.80;;;;;;;;;;5067106;28;20071;-69
2022/12/17 14:19:52;;;;;;;78.82;38.28;;;;;;;;;;5084603;28;20060;-70
2022/12/17 14:22:20;;;;;;;83.90;41.33;;;;;;;;;;5075815;28;20052;-69
2022/12/17 14:24:46;;;;;;;90.32;41.67;;;;;;;;;;5082327;28;20059;-70
2022/12/17 14:27:24;;;;;;;79.30;38.40;;;;;;;;;;5082985;28;20036;-70
2022/12/17 14:29:50;;;;;;;96.60;40.40;;;;;;;;;;5075794;28;20051;-70
2022/12/17 14:32:24;;;;;;;82.65;41.58;;;;;;;;;;5072656;28;20563;-71
2022/12/17 14:34:50;;;;;;;;;;;;;;;;;;5083005;28;20043;-70
2022/12/17 14:37:25;;;;;;;82.35;39.63;;;;;;;;;;5081163;28;20181;-70
2022/12/17 14:39:54;;;;;;;81.75;38.08;;;;;;;;;;5074175;28;20036;-70
2022/12/17 14:42:28;;;;;;;86.32;40.25;;;;;;;;;;5094517;28;20082;-71
2022/12/17 14:44:57;;;;;;;83.70;39.00;;;;;;;;;;5084953;28;20047;-69
2022/12/17 14:47:25;;;;;;;86.60;41.92;;;;;;;;;;5083274;28;20039;-70
2022/12/17 14:50:01;;;;;;;91.43;42.50;;;;;;;;;;5066827;28;20080;-69
2022/12/17 14:52:32;;;;;;;92.97;42.72;;;;;;;;;;5101571;28;20073;-69
2022/12/17 14:54:58;;;;;;;89.72;42.17;;;;;;;;;;5103429;28;20487;-70
2022/12/17 14:57:25;;;;;;;90.13;42.63;;;;;;;;;;5101735;28;20073;-70
2022/12/17 14:59:51;;;;;;;87.53;42.35;;;;;;;;;;5083143;28;20101;-70
2022/12/17 15:02:25;;;;;;;92.38;41.58;;;;;;;;;;5101479;28;20117;-70
2022/12/17 15:04:52;;;;;;;95.28;43.75;;;;;;;;;;5082108;28;21884;-69
2022/12/17 15:07:24;;;;;;;101.70;44.28;;;;;;;;;;5081683;28;20074;-70
2022/12/17 15:09:51;;;;;;;97.05;42.30;;;;;;;;;;5084724;28;20131;-69
2022/12/17 15:12:18;;;;;;;100.50;45.92;;;;;;;;;;5081211;28;20546;-70
2022/12/17 15:14:45;;;;;;;99.20;45.33;;;;;;;;;;5101865;28;20431;-70
2022/12/17 15:17:11;;;;;;;108.15;50.20;;;;;;;;;;5081444;28;20105;-69
2022/12/17 15:19:38;;;;;;;111.13;48.70;;;;;;;;;;5100101;28;20050;-69
2022/12/17 15:22:04;;;;;;;112.10;48.88;;;;;;;;;;5085178;28;20071;-69
2022/12/17 15:24:30;;;;;;;113.03;50.75;;;;;;;;;;5101512;28;20051;-70
2022/12/17 15:26:56;;;;;;;117.25;48.92;;;;;;;;;;5100595;28;20050;-70
2022/12/17 15:29:23;;;;;;;107.82;47.03;;;;;;;;;;5083897;28;20629;-70
2022/12/17 15:31:50;;;;;;;107.22;47.33;;;;;;;;;;5081526;28;20054;-70
2022/12/17 15:34:16;;;;;;;129.52;51.00;;;;;;;;;;5101430;28;20081;-69
2022/12/17 15:36:42;;;;;;;115.43;48.67;;;;;;;;;;5084295;28;20050;-69
2022/12/17 15:39:08;;;;;;;115.15;50.63;;;;;;;;;;5102039;28;20297;-69
2022/12/17 15:44:19;;;;;;;114.22;48.42;;;;;;;;;;5103315;28;20423;-77
2022/12/17 15:46:45;;;;;;;116.30;48.65;;;;;;;;;;5100153;28;20122;-69
2022/12/17 15:49:12;;;;;;;115.63;51.22;;;;;;;;;;5100837;28;20043;-69
2022/12/17 15:51:38;;;;;;;111.57;51.22;;;;;;;;;;5097841;28;20478;-69
2022/12/17 15:54:04;;;;;;;117.47;51.67;;;;;;;;;;5078750;28;20048;-72
2022/12/17 15:56:30;;;;;;;114.97;50.13;;;;;;;;;;5078432;28;20116;-68
2022/12/17 15:58:57;;;;;;;116.10;49.72;;;;;;;;;;5098477;28;20130;-69
2022/12/17 16:01:23;;;;;;;122.10;52.15;;;;;;;;;;5081730;28;20103;-69
2022/12/17 16:03:53;;;;;;;119.00;51.38;;;;;;;;;;5099379;28;20044;-68
2022/12/17 16:06:19;;;;;;;121.70;50.72;;;;;;;;;;5097998;28;20051;-69
2022/12/17 16:08:45;;;;;;;123.53;50.33;;;;;;;;;;5097176;28;20051;-68
2022/12/17 16:11:12;;;;;;;120.00;48.67;;;;;;;;;;5096640;28;20047;-69
2022/12/17 16:13:39;;;;;;;108.30;46.83;;;;;;;;;;5079614;28;20175;-68
2022/12/17 16:16:06;;;;;;;116.60;48.83;;;;;;;;;;5097587;28;20039;-68
2022/12/17 16:18:32;;;;;;;116.32;48.60;;;;;;;;;;5098201;28;20081;-68
2022/12/17 16:21:05;;;;;;;115.97;47.17;;;;;;;;;;5099312;28;20050;-69
2022/12/17 16:23:32;;;;;;;116.30;48.28;;;;;;;;;;5095513;27;20047;-69
2022/12/17 16:26:00;;;;;;;118.07;48.55;;;;;;;;;;5102224;28;20040;-69
2022/12/17 16:28:26;;;;;;;106.88;46.58;;;;;;;;;;5100417;28;20044;-69
2022/12/17 16:31:00;;;;;;;114.88;49.40;;;;;;;;;;5102336;28;20073;-68
2022/12/17 16:33:26;;;;;;;107.32;46.13;;;;;;;;;;5102495;28;20088;-69
2022/12/17 16:35:54;;;;;;;115.75;49.13;;;;;;;;;;5101925;28;20419;-69
2022/12/17 16:38:21;;;;;;;112.50;47.70;;;;;;;;;;5103221;28;20517;-69
2022/12/17 16:40:47;;;;;;;117.88;51.15;;;;;;;;;;5082081;28;20043;-69
2022/12/17 16:43:13;;;;;;;119.00;48.45;;;;;;;;;;5100387;28;20130;-69
2022/12/17 16:45:46;;;;;;;112.95;47.42;;;;;;;;;;5085147;28;20548;-69
2022/12/17 16:48:12;;;;;;;108.30;46.00;;;;;;;;;;5083091;28;20040;-69
2022/12/17 16:50:38;;;;;;;114.78;47.85;;;;;;;;;;5103413;28;20043;-69
2022/12/17 16:53:04;;;;;;;115.80;47.95;;;;;;;;;;5102079;28;20141;-70
2022/12/17 16:55:30;;;;;;;111.60;46.85;;;;;;;;;;5084022;28;20471;-70
2022/12/17 16:57:57;;;;;;;114.10;46.33;;;;;;;;;;5078628;28;20107;-70
2022/12/17 17:00:23;;;;;;;114.00;47.92;;;;;;;;;;5100000;28;20036;-69
2022/12/17 17:02:49;;;;;;;111.70;45.47;;;;;;;;;;5099318;28;20453;-71
2022/12/17 17:05:15;;;;;;;114.07;48.80;;;;;;;;;;5083324;28;20374;-71
2022/12/17 17:07:41;;;;;;;107.30;45.95;;;;;;;;;;5081864;28;20047;-71
2022/12/17 17:10:08;;;;;;;114.18;46.78;;;;;;;;;;5083488;28;20031;-71
2022/12/17 17:12:34;;;;;;;112.80;46.35;;;;;;;;;;5103544;28;20047;-71
2022/12/17 17:15:00;;;;;;;123.28;46.72;;;;;;;;;;5103279;28;20040;-71
2022/12/17 17:17:26;;;;;;;115.75;48.78;;;;;;;;;;5082055;28;20048;-70
2022/12/17 17:19:52;;;;;;;121.70;46.78;;;;;;;;;;5087608;28;20035;-70
2022/12/17 17:22:18;;;;;;;121.70;47.92;;;;;;;;;;5110611;28;20043;-70
2022/12/17 17:24:44;;;;;;;117.97;46.88;;;;;;;;;;5110117;28;20036;-70
2022/12/17 17:27:11;;;;;;;109.55;44.78;;;;;;;;;;5111569;28;20048;-70
2022/12/17 17:29:37;;;;;;;116.70;45.08;;;;;;;;;;5105847;28;20084;-70
2022/12/17 17:32:04;;;;;;;100.57;43.95;;;;;;;;;;5082669;28;20050;-70
2022/12/17 17:34:30;;;;;;;111.80;45.28;;;;;;;;;;5067399;28;20451;-70
2022/12/17 17:36:56;;;;;;;115.50;43.50;;;;;;;;;;5101668;28;20071;-70
2022/12/17 17:39:22;;;;;;;113.97;46.20;;;;;;;;;;5077951;28;20047;-70
2022/12/17 17:41:48;;;;;;;121.85;47.10;;;;;;;;;;5075488;28;20074;-70
2022/12/17 17:44:15;;;;;;;123.32;45.58;;;;;;;;;;5074739;28;20051;-70
2022/12/17 17:46:41;;;;;;;110.75;46.20;;;;;;;;;;5073817;28;20059;-70
2022/12/17 17:49:08;;;;;;;112.18;47.10;;;;;;;;;;5076860;28;20066;-70
2022/12/17 17:51:36;;;;;;;109.78;45.33;;;;;;;;;;5073153;28;20594;-70
2022/12/17 17:54:03;;;;;;;106.75;45.78;;;;;;;;;;5074467;28;20157;-70
2022/12/17 17:56:31;;;;;;;124.75;45.90;;;;;;;;;;5075149;28;20097;-70
2022/12/17 17:58:59;;;;;;;106.78;43.85;;;;;;;;;;5077766;28;20152;-70
2022/12/17 18:01:26;;;;;;;121.15;48.92;;;;;;;;;;5098510;28;20105;-70
2022/12/17 18:03:55;;;;;;;106.35;43.45;;;;;;;;;;5084357;28;20403;-69
2022/12/17 18:06:21;;;;;;;109.38;43.40;;;;;;;;;;5083912;28;20086;-69
2022/12/17 18:08:47;;;;;;;116.45;47.45;;;;;;;;;;5107001;28;20519;-70
2022/12/17 18:11:15;;;;;;;117.57;49.30;;;;;;;;;;5091708;28;20046;-70
2022/12/17 18:13:54;;;;;;;104.80;45.40;;;;;;;;;;5090892;28;20043;-69
2022/12/17 18:16:22;;;;;;;112.78;45.00;;;;;;;;;;5087417;28;20081;-69
2022/12/17 18:18:48;;;;;;;110.75;45.25;;;;;;;;;;5090944;28;20054;-69
2022/12/17 18:21:15;;;;;;;118.32;47.00;;;;;;;;;;5106820;28;20044;-69
2022/12/17 18:23:42;;;;;;;110.55;47.25;;;;;;;;;;5108067;28;20505;-70
2022/12/17 18:26:09;;;;;;;112.95;43.90;;;;;;;;;;5110060;27;20042;-69
2022/12/17 18:28:36;;;;;;;115.88;45.85;;;;;;;;;;5106547;28;20067;-70
2022/12/17 18:31:09;;;;;;;114.10;47.00;;;;;;;;;;5103552;28;20483;-69
2022/12/17 18:33:35;;;;;;;122.73;47.77;;;;;;;;;;5080419;28;20043;-70
2022/12/17 18:36:01;;;;;;;112.18;45.22;;;;;;;;;;5082187;28;20135;-70
2022/12/17 18:38:28;;;;;;;113.60;45.42;;;;;;;;;;5076759;28;20150;-69
2022/12/17 18:40:54;;;;;;;110.93;44.03;;;;;;;;;;5081027;28;20046;-69
2022/12/17 18:43:26;;;;;;;119.47;47.80;;;;;;;;;;5095698;28;20043;-69
2022/12/17 18:45:52;;;;;;;104.95;42.95;;;;;;;;;;5080959;28;20032;-69
2022/12/17 18:48:19;;;;;;;115.35;47.28;;;;;;;;;;5099965;28;20079;-69
2022/12/17 18:50:45;;;;;;;112.18;44.30;;;;;;;;;;5086568;27;20044;-70
2022/12/17 18:53:12;;;;;;;114.45;44.22;;;;;;;;;;5095039;28;20043;-65
2022/12/17 18:55:39;;;;;;;117.60;45.33;;;;;;;;;;5089934;28;20036;-68
2022/12/17 18:58:07;;;;;;;108.60;44.17;;;;;;;;;;5097512;28;20051;-68
2022/12/17 19:00:34;;;;;;;113.32;44.75;;;;;;;;;;5096049;28;20436;-68
2022/12/17 19:03:03;;;;;;;121.82;47.03;;;;;;;;;;5091399;28;20353;-68
2022/12/17 19:05:29;;;;;;;120.10;45.00;;;;;;;;;;5096488;28;20035;-68
2022/12/17 19:07:56;;;;;;;118.35;45.63;;;;;;;;;;5099852;28;20047;-68
2022/12/17 19:10:22;;;;;;;122.00;46.38;;;;;;;;;;5100919;28;20043;-68
2022/12/17 19:12:48;;;;;;;122.32;46.17;;;;;;;;;;5100079;28;20531;-68
2022/12/17 19:15:14;;;;;;;120.72;45.95;;;;;;;;;;5077970;28;20093;-68
2022/12/17 19:17:40;;;;;;;110.20;46.58;;;;;;;;;;5079972;28;20138;-68
2022/12/17 19:20:07;;;;;;;123.50;46.50;;;;;;;;;;5095338;28;20067;-68
2022/12/17 19:22:33;;;;;;;120.88;45.63;;;;;;;;;;5078883;28;20471;-68
2022/12/17 19:24:59;;;;;;;128.18;46.63;;;;;;;;;;5080104;28;20462;-68
2022/12/17 19:27:27;;;;;;;111.28;44.33;;;;;;;;;;5100519;28;20130;-68
2022/12/17 19:29:55;;;;;;;115.97;43.85;;;;;;;;;;5080810;28;21681;-68
2022/12/17 19:32:23;;;;;;;121.65;45.50;;;;;;;;;;5077234;28;20070;-68
2022/12/17 19:34:49;;;;;;;129.32;46.40;;;;;;;;;;5099243;28;20093;-68
2022/12/17 19:37:15;;;;;;;129.93;46.35;;;;;;;;;;5080314;28;20130;-68
2022/12/17 19:39:42;;;;;;;117.07;42.10;;;;;;;;;;5097813;28;20047;-68
2022/12/17 19:42:23;;;;;;;117.85;43.17;;;;;;;;;;5096574;28;20043;-68
2022/12/17 19:44:49;;;;;;;117.90;44.55;;;;;;;;;;5095732;28;20094;-68
2022/12/17 19:47:16;;;;;;;119.38;45.28;;;;;;;;;;5079028;28;20043;-68
2022/12/17 19:49:42;;;;;;;116.30;44.05;;;;;;;;;;5096878;28;20050;-68
2022/12/17 19:52:08;;;;;;;109.55;43.47;;;;;;;;;;5075545;28;20151;-68
2022/12/17 19:54:34;;;;;;;116.65;45.03;;;;;;;;;;5077627;28;20481;-68
2022/12/17 19:57:00;;;;;;;114.07;43.38;;;;;;;;;;5108317;28;20048;-68
2022/12/17 19:59:27;;;;;;;117.57;43.40;;;;;;;;;;5101883;28;20522;-68
2022/12/17 20:01:54;;;;;;;118.18;44.33;;;;;;;;;;5102090;28;20081;-68
2022/12/17 20:04:20;;;;;;;104.35;40.60;;;;;;;;;;5083783;28;20061;-68
2022/12/17 20:06:47;;;;;;;114.80;41.45;;;;;;;;;;5103004;28;20492;-68
2022/12/17 20:09:16;;;;;;;117.18;43.47;;;;;;;;;;5083910;28;20055;-68
2022/12/17 20:11:44;;;;;;;106.75;42.28;;;;;;;;;;5103726;28;20043;-68
2022/12/17 20:14:12;;;;;;;116.95;42.30;;;;;;;;;;5099841;28;20124;-68
2022/12/17 20:16:41;;;;;;;119.88;42.45;;;;;;;;;;5104905;28;20059;-83
2022/12/17 20:19:08;;;;;;;119.00;42.03;;;;;;;;;;5096052;28;20043;-68
2022/12/17 20:21:34;;;;;;;116.07;43.25;;;;;;;;;;5104916;28;20031;-68
2022/12/17 20:24:01;;;;;;;111.43;41.22;;;;;;;;;;5106425;27;20134;-68
2022/12/17 20:26:30;;;;;;;120.72;42.58;;;;;;;;;;5086786;28;20645;-69
2022/12/17 20:28:57;;;;;;;115.60;43.47;;;;;;;;;;5106876;28;20051;-68
2022/12/17 20:31:24;;;;;;;117.20;42.50;;;;;;;;;;5087741;28;20092;-68
2022/12/17 20:33:50;;;;;;;111.50;43.40;;;;;;;;;;5105980;28;20045;-68
2022/12/17 20:36:17;;;;;;;113.97;41.50;;;;;;;;;;5105859;28;20031;-68
2022/12/17 20:38:43;;;;;;;119.32;44.78;;;;;;;;;;5088463;28;20135;-68
2022/12/17 20:41:10;;;;;;;114.15;42.20;;;;;;;;;;5104983;28;20058;-68
2022/12/17 20:43:37;;;;;;;114.25;42.08;;;;;;;;;;5106024;28;20074;-68
2022/12/17 20:46:04;;;;;;;108.05;43.10;;;;;;;;;;5107467;28;20399;-68
2022/12/17 20:48:30;;;;;;;111.78;42.42;;;;;;;;;;5105711;28;20044;-68
2022/12/17 20:50:56;;;;;;;112.40;41.30;;;;;;;;;;5107275;28;20601;-68
2022/12/17 20:53:22;;;;;;;119.38;43.70;;;;;;;;;;5104334;28;20039;-68
2022/12/17 20:55:58;;;;;;;119.57;42.92;;;;;;;;;;5100837;28;20044;-69
2022/12/17 20:58:24;;;;;;;109.75;41.45;;;;;;;;;;5105052;28;20475;-68
2022/12/17 21:00:51;;;;;;;108.55;42.53;;;;;;;;;;5098074;28;20044;-68
2022/12/17 21:03:17;;;;;;;119.20;43.20;;;;;;;;;;5098967;28;20093;-68
2022/12/17 21:05:43;;;;;;;120.80;42.30;;;;;;;;;;5098785;28;20139;-68
2022/12/17 21:08:09;;;;;;;113.97;41.50;;;;;;;;;;5097677;28;20490;-69
2022/12/17 21:10:35;;;;;;;114.03;40.17;;;;;;;;;;5063270;28;20044;-68
2022/12/17 21:13:35;;;;;;;119.97;41.72;;;;;;;;;;5079358;28;20051;-68
2022/12/17 21:16:02;;;;;;;117.32;40.80;;;;;;;;;;5097381;28;20049;-68
2022/12/17 21:18:29;;;;;;;118.97;42.28;;;;;;;;;;5062189;28;21702;-69
2022/12/17 21:20:56;;;;;;;115.88;44.78;;;;;;;;;;5096883;28;20500;-68
2022/12/17 21:23:23;;;;;;;113.88;42.20;;;;;;;;;;5092666;28;20498;-68
2022/12/17 21:25:56;;;;;;;113.10;41.65;;;;;;;;;;5078620;28;20126;-68
2022/12/17 21:28:22;;;;;;;116.50;40.60;;;;;;;;;;5093281;28;20395;-68
2022/12/17 21:30:49;;;;;;;117.60;44.50;;;;;;;;;;5078582;28;20051;-69
2022/12/17 21:33:15;;;;;;;110.93;42.85;;;;;;;;;;5095846;28;20265;-69
2022/12/17 21:35:41;;;;;;;115.65;44.15;;;;;;;;;;5077001;28;20055;-68
2022/12/17 21:38:07;;;;;;;109.00;40.10;;;;;;;;;;5074173;28;20439;-68
2022/12/17 21:40:35;;;;;;;117.20;42.10;;;;;;;;;;5095586;28;20436;-69
2022/12/17 21:43:01;;;;;;;116.47;41.72;;;;;;;;;;5096870;28;20785;-68
2022/12/17 21:45:33;;;;;;;111.85;42.65;;;;;;;;;;5098897;28;20074;-68
2022/12/17 21:47:59;;;;;;;114.25;43.20;;;;;;;;;;5096648;28;20090;-69
2022/12/17 21:50:26;;;;;;;115.30;43.95;;;;;;;;;;5077514;28;20051;-68
2022/12/17 21:52:52;;;;;;;117.55;46.42;;;;;;;;;;5079397;28;20047;-70
2022/12/17 21:55:18;;;;;;;111.13;44.97;;;;;;;;;;5077698;28;20101;-69
2022/12/17 21:57:44;;;;;;;110.97;42.08;;;;;;;;;;5095385;28;20682;-68
2022/12/17 22:00:11;;;;;;;102.97;40.83;;;;;;;;;;5077545;28;20040;-68
2022/12/17 22:02:37;;;;;;;111.47;43.10;;;;;;;;;;5076954;28;20096;-68
2022/12/17 22:05:03;;;;;;;112.85;45.13;;;;;;;;;;5095823;28;20037;-68
2022/12/17 22:07:29;;;;;;;109.43;42.63;;;;;;;;;;5093635;28;20180;-68
2022/12/17 22:09:55;;;;;;;112.22;41.53;;;;;;;;;;5096180;28;20047;-69
2022/12/17 22:15:07;;;;;;;111.10;44.53;;;;;;;;;;5079258;28;20051;-69
2022/12/17 22:17:33;;;;;;;109.28;42.85;;;;;;;;;;5081361;28;20061;-68
2022/12/17 22:19:59;;;;;;;117.22;46.30;;;;;;;;;;5097605;28;20089;-68
2022/12/17 22:22:25;;;;;;;112.70;45.75;;;;;;;;;;5095180;28;20033;-69
2022/12/17 22:24:51;;;;;;;114.35;45.05;;;;;;;;;;5077517;28;20175;-69
2022/12/17 22:27:18;;;;;;;109.03;43.85;;;;;;;;;;5095786;28;20039;-69
2022/12/17 22:35:14;;;;;;;114.43;43.58;;;;;;;;;;5086362;28;20048;-68
2022/12/17 22:37:40;;;;;;;117.70;43.35;;;;;;;;;;5075825;28;20051;-68
2022/12/17 22:40:07;;;;;;;118.50;45.00;;;;;;;;;;5106454;27;20390;-68
2022/12/17 22:45:18;;;;;;;124.15;43.72;;;;;;;;;;5103272;28;20494;-68
2022/12/17 22:47:44;;;;;;;134.73;46.38;;;;;;;;;;5103222;27;20454;-68
2022/12/17 22:50:10;;;;;;;115.28;45.40;;;;;;;;;;5105553;28;20038;-68
2022/12/17 22:52:36;;;;;;;119.97;42.30;;;;;;;;;;5085484;28;20075;-68
2022/12/17 22:55:03;;;;;;;112.15;43.55;;;;;;;;;;5104680;28;20044;-68
2022/12/17 22:57:29;;;;;;;116.55;42.38;;;;;;;;;;5104679;28;20176;-68
2022/12/17 22:59:55;;;;;;;116.63;45.15;;;;;;;;;;5105626;28;20119;-68
2022/12/17 23:02:22;;;;;;;106.70;42.53;;;;;;;;;;5104594;28;20415;-68
2022/12/17 23:04:48;;;;;;;114.50;43.58;;;;;;;;;;5102147;27;20040;-68
2022/12/17 23:07:14;;;;;;;119.70;44.92;;;;;;;;;;5103601;28;20043;-69
2022/12/17 23:09:40;;;;;;;109.25;42.17;;;;;;;;;;5100052;28;20081;-68
2022/12/17 23:14:51;;;;;;;99.40;37.38;;;;;;;;;;5101831;28;20043;-68
2022/12/17 23:17:17;;;;;;;97.72;39.17;;;;;;;;;;5096768;28;20596;-68
2022/12/17 23:19:44;;;;;;;111.20;42.65;;;;;;;;;;5097367;28;20313;-68
2022/12/17 23:22:10;;;;;;;114.88;43.50;;;;;;;;;;5100493;28;20028;-68
2022/12/17 23:24:36;;;;;;;111.57;42.35;;;;;;;;;;5096224;28;20531;-68
2022/12/17 23:27:02;;;;;;;115.50;43.80;;;;;;;;;;5079735;28;20119;-68
2022/12/17 23:29:29;;;;;;;106.32;40.35;;;;;;;;;;5078747;28;20039;-68
2022/12/17 23:31:55;;;;;;;114.18;42.38;;;;;;;;;;5096266;28;20055;-68
2022/12/17 23:34:21;;;;;;;107.95;42.63;;;;;;;;;;5075671;28;20050;-68
2022/12/17 23:36:47;;;;;;;108.22;42.05;;;;;;;;;;5094281;28;20449;-68
2022/12/17 23:39:13;;;;;;;110.53;43.53;;;;;;;;;;5093427;28;20036;-68
2022/12/17 23:41:39;;;;;;;105.90;40.70;;;;;;;;;;5099883;28;20087;-68
2022/12/17 23:44:06;;;;;;;114.10;44.38;;;;;;;;;;5098740;28;20046;-68
2022/12/17 23:46:32;;;;;;;114.97;41.72;;;;;;;;;;5096802;28;20184;-67
2022/12/17 23:48:58;;;;;;;119.10;44.00;;;;;;;;;;5096764;28;20053;-67
2022/12/17 23:51:24;;;;;;;111.80;41.58;;;;;;;;;;5076455;28;20128;-68
2022/12/17 23:53:51;;;;;;;107.00;40.13;;;;;;;;;;5093902;28;20074;-68
2022/12/17 23:56:19;;;;;;;109.60;42.55;;;;;;;;;;5093651;28;20073;-68
2022/12/17 23:58:46;;;;;;;111.05;42.60;;;;;;;;;;5094566;28;20044;-68
